createdAt,value
2022-10-13T00:00:14.126Z,10.00
2022-10-13T00:02:40.910Z,10.18
2022-10-13T00:05:08.221Z,10.23
2022-10-13T00:07:35.041Z,10.32
2022-10-13T00:10:02.864Z,10.37
2022-10-13T00:12:29.690Z,10.41
2022-10-13T00:14:58.146Z,10.37
2022-10-13T00:17:25.070Z,10.44
2022-10-13T00:19:51.903Z,10.44
2022-10-13T00:22:19.265Z,10.47
2022-10-13T00:24:51.129Z,10.51
2022-10-13T00:27:18.105Z,10.48
2022-10-13T00:29:45.531Z,10.44
2022-10-13T00:32:12.583Z,10.47
2022-10-13T00:34:40.209Z,10.41
2022-10-13T00:37:07.418Z,10.40
2022-10-13T00:39:34.731Z,10.28
2022-10-13T00:42:01.593Z,10.29
2022-10-13T00:44:59.653Z,10.29
2022-10-13T00:47:38.670Z,10.25
2022-10-13T00:50:09.638Z,10.18
2022-10-13T00:52:37.795Z,10.17
2022-10-13T00:55:06.329Z,9.96
2022-10-13T00:57:33.703Z,10.03
2022-10-13T01:00:02.095Z,10.00
2022-10-13T01:02:32.892Z,9.96
2022-10-13T01:05:00.573Z,9.88
2022-10-13T01:07:27.439Z,9.81
2022-10-13T01:09:54.368Z,9.79
2022-10-13T01:12:39.943Z,9.83
2022-10-13T01:15:24.907Z,9.81
2022-10-13T01:18:26.676Z,9.75
2022-10-13T01:21:25.931Z,9.69
2022-10-13T01:24:20.034Z,9.68
2022-10-13T01:27:05.108Z,9.65
2022-10-13T01:29:57.768Z,9.64
2022-10-13T01:32:30.595Z,9.62
2022-10-13T01:35:11.887Z,9.69
2022-10-13T01:37:48.028Z,9.71
2022-10-13T01:40:48.124Z,9.70
2022-10-13T01:43:23.595Z,9.62
2022-10-13T01:45:56.991Z,9.59
2022-10-13T01:48:25.637Z,9.55
2022-10-13T01:50:54.222Z,9.33
2022-10-13T01:53:22.580Z,9.28
2022-10-13T01:55:51.126Z,9.28
2022-10-13T01:58:20.661Z,9.33
2022-10-13T02:01:00.290Z,9.30
2022-10-13T02:03:32.323Z,9.23
2022-10-13T02:06:55.483Z,9.27
2022-10-13T02:09:35.725Z,9.26
2022-10-13T02:12:10.042Z,9.26
2022-10-13T02:14:40.554Z,9.31
2022-10-13T02:17:07.549Z,9.36
2022-10-13T02:19:37.701Z,9.31
2022-10-13T02:22:06.113Z,9.35
2022-10-13T02:24:33.524Z,9.40
2022-10-13T02:27:00.661Z,9.30
2022-10-13T02:29:27.467Z,9.36
2022-10-13T02:31:54.996Z,9.30
2022-10-13T02:34:21.848Z,9.33
2022-10-13T02:36:48.770Z,9.29
2022-10-13T02:39:15.930Z,9.27
2022-10-13T02:41:42.718Z,9.25
2022-10-13T02:44:09.682Z,9.34
2022-10-13T02:46:39.308Z,9.38
2022-10-13T02:49:06.171Z,9.33
2022-10-13T02:51:37.495Z,9.40
2022-10-13T02:54:05.951Z,9.41
2022-10-13T02:56:32.737Z,9.45
2022-10-13T02:58:59.495Z,9.39
2022-10-13T03:01:26.286Z,9.40
2022-10-13T03:03:53.179Z,9.41
2022-10-13T03:06:20.010Z,9.33
2022-10-13T03:08:46.931Z,9.25
2022-10-13T03:11:13.815Z,9.30
2022-10-13T03:13:40.592Z,9.30
2022-10-13T03:16:07.816Z,9.33
2022-10-13T03:18:35.347Z,9.39
2022-10-13T03:21:04.828Z,9.34
2022-10-13T03:23:32.936Z,9.30
2022-10-13T03:26:00.231Z,9.31
2022-10-13T03:28:27.581Z,9.35
2022-10-13T03:31:06.292Z,9.30
2022-10-13T03:33:33.110Z,9.29
2022-10-13T03:36:01.909Z,9.27
2022-10-13T03:38:30.436Z,9.20
2022-10-13T03:40:57.496Z,9.16
2022-10-13T03:43:24.788Z,9.08
2022-10-13T03:45:58.929Z,8.95
2022-10-13T03:48:26.438Z,8.95
2022-10-13T03:50:53.875Z,8.80
2022-10-13T03:53:21.226Z,8.85
2022-10-13T03:55:53.056Z,8.76
2022-10-13T03:58:20.926Z,8.73
2022-10-13T04:00:48.330Z,8.70
2022-10-13T04:03:15.775Z,8.77
2022-10-13T04:05:43.393Z,8.71
2022-10-13T04:08:10.691Z,8.76
2022-10-13T04:10:37.565Z,8.82
2022-10-13T04:13:04.748Z,8.80
2022-10-13T04:15:35.854Z,8.82
2022-10-13T04:18:02.725Z,8.88
2022-10-13T04:20:29.551Z,8.83
2022-10-13T04:22:56.368Z,8.86
2022-10-13T04:25:24.026Z,8.93
2022-10-13T04:27:51.006Z,8.90
2022-10-13T04:30:17.928Z,8.99
2022-10-13T04:32:44.669Z,8.93
2022-10-13T04:35:11.537Z,8.94
2022-10-13T04:37:41.619Z,8.92
2022-10-13T04:40:11.895Z,8.75
2022-10-13T04:42:38.660Z,8.79
2022-10-13T04:45:05.957Z,8.73
2022-10-13T04:47:37.018Z,8.67
2022-10-13T04:50:04.473Z,8.74
2022-10-13T04:52:31.536Z,8.77
2022-10-13T04:54:58.284Z,8.74
2022-10-13T04:57:25.049Z,8.85
2022-10-13T04:59:52.025Z,8.78
2022-10-13T05:02:19.104Z,8.67
2022-10-13T05:04:46.239Z,8.65
2022-10-13T05:07:17.882Z,8.52
2022-10-13T05:09:45.364Z,8.32
2022-10-13T05:12:12.274Z,8.29
2022-10-13T05:14:39.050Z,8.40
2022-10-13T05:17:05.840Z,8.41
2022-10-13T05:19:32.871Z,8.25
2022-10-13T05:21:59.669Z,8.32
2022-10-13T05:24:36.520Z,8.38
2022-10-13T05:27:11.504Z,8.35
2022-10-13T05:29:39.463Z,8.28
2022-10-13T05:32:07.575Z,8.44
2022-10-13T05:34:34.455Z,8.53
2022-10-13T05:37:01.307Z,8.59
2022-10-13T05:39:28.308Z,8.69
2022-10-13T05:41:55.369Z,8.62
2022-10-13T05:44:22.427Z,8.77
2022-10-13T05:46:49.873Z,8.83
2022-10-13T05:49:17.053Z,8.89
2022-10-13T05:51:48.833Z,8.83
2022-10-13T05:54:15.565Z,8.94
2022-10-13T05:56:51.899Z,8.99
2022-10-13T05:59:26.163Z,8.91
2022-10-13T06:01:54.500Z,9.01
2022-10-13T06:04:27.024Z,9.10
2022-10-13T06:06:53.884Z,9.16
2022-10-13T06:09:20.960Z,8.99
2022-10-13T06:11:47.730Z,9.02
2022-10-13T06:14:14.526Z,8.99
2022-10-13T06:16:42.249Z,9.15
2022-10-13T06:19:09.114Z,9.31
2022-10-13T06:21:36.037Z,9.41
2022-10-13T06:24:03.191Z,9.54
2022-10-13T06:26:30.286Z,9.52
2022-10-13T06:28:59.535Z,9.63
2022-10-13T06:31:27.021Z,9.79
2022-10-13T06:33:54.402Z,9.74
2022-10-13T06:36:21.227Z,9.79
2022-10-13T06:38:48.045Z,9.90
2022-10-13T06:41:15.095Z,10.06
2022-10-13T06:43:42.226Z,10.08
2022-10-13T06:46:09.454Z,10.18
2022-10-13T06:48:36.364Z,10.30
2022-10-13T06:51:04.826Z,10.32
2022-10-13T06:53:31.991Z,10.38
2022-10-13T06:55:59.914Z,10.48
2022-10-13T06:58:27.111Z,10.55
2022-10-13T07:00:54.715Z,10.53
2022-10-13T07:03:22.249Z,10.58
2022-10-13T07:05:49.036Z,10.70
2022-10-13T07:08:16.107Z,10.78
2022-10-13T07:10:43.272Z,10.81
2022-10-13T07:13:10.231Z,11.00
2022-10-13T07:15:39.383Z,11.26
2022-10-13T07:18:06.752Z,11.41
2022-10-13T07:20:33.603Z,11.43
2022-10-13T07:23:00.501Z,11.50
2022-10-13T07:25:27.508Z,11.65
2022-10-13T07:27:54.473Z,11.69
2022-10-13T07:30:22.355Z,11.74
2022-10-13T07:32:49.580Z,11.94
2022-10-13T07:35:16.686Z,11.82
2022-10-13T07:37:43.593Z,11.90
2022-10-13T07:40:11.187Z,12.06
2022-10-13T07:42:37.981Z,12.42
2022-10-13T07:45:05.330Z,12.63
2022-10-13T07:47:32.291Z,12.87
2022-10-13T07:49:59.138Z,13.24
2022-10-13T07:52:26.093Z,13.87
2022-10-13T07:54:53.183Z,13.98
2022-10-13T07:57:20.291Z,14.32
2022-10-13T07:59:47.486Z,14.71
2022-10-13T08:02:14.304Z,15.00
2022-10-13T08:04:41.100Z,15.55
2022-10-13T08:07:08.206Z,15.86
2022-10-13T08:09:35.958Z,16.07
2022-10-13T08:12:02.848Z,15.65
2022-10-13T08:14:31.211Z,15.95
2022-10-13T08:16:58.302Z,15.54
2022-10-13T08:19:26.536Z,15.58
2022-10-13T08:21:58.766Z,15.64
2022-10-13T08:24:27.513Z,15.83
2022-10-13T08:26:54.504Z,16.18
2022-10-13T08:29:23.943Z,15.64
2022-10-13T08:31:52.929Z,16.04
2022-10-13T08:34:21.250Z,16.31
2022-10-13T08:36:50.024Z,16.49
2022-10-13T08:39:16.874Z,16.57
2022-10-13T08:41:44.216Z,16.27
2022-10-13T08:47:15.394Z,16.66
2022-10-13T08:49:43.783Z,16.67
2022-10-13T08:52:19.605Z,16.96
2022-10-13T08:54:47.349Z,16.61
2022-10-13T08:57:14.357Z,16.44
2022-10-13T08:59:41.992Z,16.95
2022-10-13T09:02:31.285Z,17.22
2022-10-13T09:05:02.373Z,16.89
2022-10-13T09:07:34.685Z,17.09
2022-10-13T09:10:03.696Z,17.59
2022-10-13T09:12:31.564Z,17.56
2022-10-13T09:15:02.910Z,17.90
2022-10-13T09:17:31.330Z,18.25
2022-10-13T09:20:15.054Z,18.50
2022-10-13T09:22:42.724Z,18.46
2022-10-13T09:25:18.380Z,18.53
2022-10-13T09:27:52.793Z,18.87
2022-10-13T09:30:39.466Z,19.29
2022-10-13T09:33:09.435Z,19.89
2022-10-13T09:35:37.389Z,18.91
2022-10-13T09:38:16.925Z,19.56
2022-10-13T09:40:58.603Z,20.02
2022-10-13T09:43:28.521Z,19.49
2022-10-13T09:45:56.897Z,19.16
2022-10-13T09:48:31.154Z,19.69
2022-10-13T09:50:59.151Z,19.69
2022-10-13T09:53:37.520Z,20.19
2022-10-13T09:56:25.710Z,20.44
2022-10-13T09:59:06.019Z,20.81
2022-10-13T10:01:37.489Z,20.95
2022-10-13T10:04:10.091Z,21.44
2022-10-13T10:06:37.840Z,21.87
2022-10-13T10:09:33.086Z,22.36
2022-10-13T10:12:01.898Z,22.77
2022-10-13T10:14:33.269Z,23.07
2022-10-13T10:17:12.985Z,22.30
2022-10-13T10:20:17.361Z,22.94
2022-10-13T10:22:57.492Z,22.97
2022-10-13T10:25:38.146Z,22.12
2022-10-13T10:28:08.015Z,21.73
2022-10-13T10:30:43.180Z,21.94
2022-10-13T10:33:14.642Z,21.41
2022-10-13T10:35:51.651Z,21.94
2022-10-13T10:38:40.907Z,21.87
2022-10-13T10:41:14.077Z,21.70
2022-10-13T10:43:52.030Z,21.77
2022-10-13T10:46:23.526Z,21.52
2022-10-13T10:48:55.010Z,22.73
2022-10-13T10:51:32.616Z,22.24
2022-10-13T10:54:05.639Z,23.42
2022-10-13T10:56:38.239Z,23.78
2022-10-13T10:59:13.735Z,24.63
2022-10-13T11:01:45.813Z,25.13
2022-10-13T11:04:53.341Z,25.27
2022-10-13T11:07:22.661Z,25.99
2022-10-13T11:09:52.241Z,25.75
2022-10-13T11:12:19.098Z,24.52
2022-10-13T11:14:47.966Z,24.27
2022-10-13T11:17:20.055Z,24.02
2022-10-13T11:19:49.021Z,24.00
2022-10-13T11:22:19.130Z,24.50
2022-10-13T11:24:49.570Z,25.17
2022-10-13T11:27:16.216Z,25.55
2022-10-13T11:29:53.926Z,25.79
2022-10-13T11:32:26.433Z,24.93
2022-10-13T11:35:05.513Z,26.83
2022-10-13T11:37:51.699Z,27.31
2022-10-13T11:40:36.754Z,27.14
2022-10-13T11:43:40.812Z,26.78
2022-10-13T11:46:22.357Z,26.91
2022-10-13T11:49:34.677Z,26.18
2022-10-13T11:52:13.989Z,25.59
2022-10-13T11:54:52.925Z,25.29
2022-10-13T11:57:23.868Z,24.89
2022-10-13T11:59:55.459Z,25.25
2022-10-13T12:02:25.490Z,25.55
2022-10-13T12:05:07.228Z,26.47
2022-10-13T12:07:41.471Z,26.82
2022-10-13T12:10:18.780Z,26.83
2022-10-13T12:12:48.637Z,26.79
2022-10-13T12:15:30.784Z,26.63
2022-10-13T12:17:57.743Z,25.48
2022-10-13T12:20:28.930Z,25.66
2022-10-13T12:22:56.680Z,26.43
2022-10-13T12:25:30.109Z,27.30
2022-10-13T12:27:59.661Z,27.20
2022-10-13T12:30:35.864Z,27.11
2022-10-13T12:33:04.565Z,27.32
2022-10-13T12:35:34.598Z,27.24
2022-10-13T12:38:05.827Z,26.57
2022-10-13T12:40:33.922Z,27.44
2022-10-13T12:43:01.546Z,27.08
2022-10-13T12:45:32.980Z,27.76
2022-10-13T12:48:00.252Z,27.02
2022-10-13T12:50:30.039Z,26.98
2022-10-13T12:53:26.293Z,26.65
2022-10-13T12:55:59.284Z,27.58
2022-10-13T12:58:35.794Z,26.78
2022-10-13T13:01:25.488Z,27.59
2022-10-13T13:03:58.663Z,27.19
2022-10-13T13:06:30.756Z,26.92
2022-10-13T13:09:18.847Z,25.90
2022-10-13T13:11:45.945Z,26.22
2022-10-13T13:14:38.401Z,24.84
2022-10-13T13:17:07.789Z,26.33
2022-10-13T13:19:36.449Z,27.16
2022-10-13T13:22:05.960Z,26.39
2022-10-13T13:24:39.799Z,26.01
2022-10-13T13:27:19.819Z,26.19
2022-10-13T13:29:48.021Z,25.91
2022-10-13T13:32:20.460Z,25.50
2022-10-13T13:34:48.571Z,25.72
2022-10-13T13:37:24.283Z,24.46
2022-10-13T13:39:51.469Z,25.04
2022-10-13T13:42:18.562Z,24.78
2022-10-13T13:44:48.725Z,26.07
2022-10-13T13:47:24.626Z,25.45
2022-10-13T13:49:54.243Z,24.77
2022-10-13T13:52:22.192Z,25.28
2022-10-13T13:54:50.850Z,24.68
2022-10-13T13:57:19.258Z,24.18
2022-10-13T13:59:47.945Z,23.55
2022-10-13T14:02:20.850Z,23.92
2022-10-13T14:04:47.804Z,24.37
2022-10-13T14:07:14.728Z,23.33
2022-10-13T14:09:41.906Z,23.05
2022-10-13T14:12:09.062Z,22.99
2022-10-13T14:14:36.227Z,21.80
2022-10-13T14:17:06.514Z,21.64
2022-10-13T14:19:33.809Z,21.97
2022-10-13T14:22:04.713Z,21.62
2022-10-13T14:24:33.960Z,21.71
2022-10-13T14:27:00.895Z,21.52
2022-10-13T14:29:28.913Z,21.54
2022-10-13T14:31:55.835Z,20.83
2022-10-13T14:34:22.796Z,20.86
2022-10-13T14:36:49.655Z,21.10
2022-10-13T14:39:16.461Z,20.98
2022-10-13T14:41:43.674Z,20.62
2022-10-13T14:44:13.399Z,20.59
2022-10-13T14:46:41.200Z,20.70
2022-10-13T14:49:09.774Z,20.43
2022-10-13T14:51:36.662Z,20.16
2022-10-13T14:54:04.578Z,20.00
2022-10-13T14:56:32.018Z,19.67
2022-10-13T14:59:04.525Z,19.77
2022-10-13T15:01:33.446Z,19.90
2022-10-13T15:04:01.441Z,19.92
2022-10-13T15:06:29.099Z,19.87
2022-10-13T15:08:56.106Z,19.81
2022-10-13T15:11:24.151Z,19.76
2022-10-13T15:13:51.352Z,19.70
2022-10-13T15:16:19.320Z,19.74
2022-10-13T15:18:46.314Z,19.75
2022-10-13T15:21:14.145Z,19.66
2022-10-13T15:23:41.104Z,19.59
2022-10-13T15:26:08.300Z,19.32
2022-10-13T15:28:40.802Z,19.26
2022-10-13T15:31:07.649Z,19.29
2022-10-13T15:33:34.878Z,19.04
2022-10-13T15:36:02.079Z,18.76
2022-10-13T15:38:29.708Z,18.65
2022-10-13T15:41:06.974Z,18.59
2022-10-13T15:43:34.610Z,18.58
2022-10-13T15:46:04.678Z,18.49
2022-10-13T15:48:32.842Z,18.28
2022-10-13T15:51:00.124Z,18.20
2022-10-13T15:53:29.374Z,18.05
2022-10-13T15:55:56.191Z,17.98
2022-10-13T15:58:23.140Z,17.85
2022-10-13T16:00:49.996Z,17.61
2022-10-13T16:03:18.369Z,17.59
2022-10-13T16:05:46.332Z,17.50
2022-10-13T16:08:14.374Z,17.42
2022-10-13T16:10:43.001Z,17.35
2022-10-13T16:13:15.061Z,17.27
2022-10-13T16:15:42.721Z,17.16
2022-10-13T16:18:11.171Z,16.88
2022-10-13T16:20:45.385Z,17.00
2022-10-13T16:23:12.247Z,16.76
2022-10-13T16:25:39.645Z,16.69
2022-10-13T16:28:06.582Z,16.50
2022-10-13T16:30:36.710Z,16.34
2022-10-13T16:33:04.129Z,16.38
2022-10-13T16:35:30.970Z,16.11
2022-10-13T16:37:58.035Z,16.03
2022-10-13T16:40:24.910Z,15.93
2022-10-13T16:42:51.871Z,15.80
2022-10-13T16:45:21.542Z,15.71
2022-10-13T16:47:57.702Z,15.63
2022-10-13T16:50:24.586Z,15.51
2022-10-13T16:52:51.444Z,15.43
2022-10-13T16:55:18.464Z,15.46
2022-10-13T16:57:45.425Z,15.28
2022-10-13T17:00:13.851Z,15.25
2022-10-13T17:02:40.759Z,15.09
2022-10-13T17:05:07.836Z,15.05
2022-10-13T17:07:34.719Z,14.87
2022-10-13T17:10:03.157Z,14.94
2022-10-13T17:12:30.387Z,14.81
2022-10-13T17:14:57.454Z,14.70
2022-10-13T17:17:24.382Z,14.55
2022-10-13T17:19:51.285Z,14.31
2022-10-13T17:22:18.319Z,14.35
2022-10-13T17:24:48.499Z,14.18
2022-10-13T17:27:19.524Z,14.37
2022-10-13T17:29:46.929Z,14.36
2022-10-13T17:32:13.871Z,14.23
2022-10-13T17:34:40.804Z,14.07
2022-10-13T17:37:07.628Z,14.17
2022-10-13T17:39:34.462Z,13.85
2022-10-13T17:42:01.868Z,13.78
2022-10-13T17:44:29.434Z,13.35
2022-10-13T17:46:57.126Z,13.55
2022-10-13T17:49:25.809Z,13.50
2022-10-13T17:51:54.617Z,13.22
2022-10-13T17:54:25.199Z,13.28
2022-10-13T17:56:55.926Z,13.32
2022-10-13T17:59:24.027Z,13.04
2022-10-13T18:01:51.581Z,13.13
2022-10-13T18:04:19.901Z,13.03
2022-10-13T18:06:47.364Z,13.13
2022-10-13T18:09:23.312Z,12.92
2022-10-13T18:11:52.355Z,12.93
2022-10-13T18:14:22.122Z,12.76
2022-10-13T18:16:53.072Z,12.88
2022-10-13T18:19:21.852Z,12.69
2022-10-13T18:21:49.662Z,12.75
2022-10-13T18:24:17.822Z,12.59
2022-10-13T18:26:47.074Z,12.51
2022-10-13T18:29:14.829Z,12.62
2022-10-13T18:31:43.161Z,12.33
2022-10-13T18:34:17.125Z,12.51
2022-10-13T18:36:47.792Z,12.30
2022-10-13T18:39:20.967Z,12.39
2022-10-13T18:41:50.068Z,12.23
2022-10-13T18:44:18.464Z,12.28
2022-10-13T18:46:48.533Z,12.40
2022-10-13T18:49:19.355Z,12.31
2022-10-13T18:51:49.866Z,12.26
2022-10-13T18:54:17.646Z,12.16
2022-10-13T18:56:45.368Z,12.23
2022-10-13T18:59:13.018Z,12.01
2022-10-13T19:01:41.435Z,11.98
2022-10-13T19:04:10.208Z,12.09
2022-10-13T19:06:38.090Z,11.93
2022-10-13T19:09:08.128Z,12.03
2022-10-13T19:11:35.857Z,12.00
2022-10-13T19:14:05.852Z,11.79
2022-10-13T19:16:37.387Z,11.89
2022-10-13T19:19:05.466Z,11.79
2022-10-13T19:21:33.267Z,11.79
2022-10-13T19:24:01.571Z,11.66
2022-10-13T19:26:32.399Z,11.74
2022-10-13T19:29:08.592Z,11.47
2022-10-13T19:31:37.974Z,11.57
2022-10-13T19:34:05.827Z,11.58
2022-10-13T19:36:44.005Z,11.51
2022-10-13T19:39:18.164Z,11.36
2022-10-13T19:41:47.821Z,11.25
2022-10-13T19:44:18.203Z,11.28
2022-10-13T19:46:50.471Z,11.22
2022-10-13T19:49:20.363Z,11.24
2022-10-13T19:51:49.663Z,11.21
2022-10-13T19:54:20.111Z,11.18
2022-10-13T19:56:49.143Z,10.99
2022-10-13T19:59:18.080Z,10.93
2022-10-13T20:01:45.756Z,11.03
2022-10-13T20:04:14.586Z,11.01
2022-10-13T20:06:42.003Z,11.02
2022-10-13T20:09:08.982Z,10.97
2022-10-13T20:11:35.895Z,10.93
2022-10-13T20:14:02.991Z,10.75
2022-10-13T20:16:30.003Z,10.90
2022-10-13T20:18:59.396Z,10.88
2022-10-13T20:21:27.937Z,10.86
2022-10-13T20:23:55.353Z,10.68
2022-10-13T20:26:22.891Z,10.56
2022-10-13T20:28:50.844Z,10.46
2022-10-13T20:31:20.373Z,10.53
2022-10-13T20:33:49.446Z,10.55
2022-10-13T20:36:17.545Z,10.50
2022-10-13T20:38:44.391Z,10.29
2022-10-13T20:41:17.716Z,10.00
2022-10-13T20:43:45.527Z,10.27
2022-10-13T20:46:12.640Z,10.00
2022-10-13T20:49:05.563Z,10.29
2022-10-13T20:51:28.491Z,10.31
2022-10-13T20:53:55.444Z,10.27
2022-10-13T20:56:25.001Z,10.21
2022-10-13T20:58:52.688Z,10.15
2022-10-13T21:01:21.487Z,10.22
2022-10-13T21:03:53.112Z,10.20
2022-10-13T21:06:20.511Z,9.97
2022-10-13T21:08:47.834Z,10.08
2022-10-13T21:11:16.483Z,10.10
2022-10-13T21:13:44.506Z,10.05
2022-10-13T21:16:17.582Z,9.86
2022-10-13T21:18:48.122Z,9.95
2022-10-13T21:21:17.471Z,9.94
2022-10-13T21:23:44.768Z,9.80
2022-10-13T21:26:11.617Z,9.94
2022-10-13T21:28:39.325Z,9.73
2022-10-13T21:31:10.609Z,9.62
2022-10-13T21:33:39.034Z,9.75
2022-10-13T21:36:07.742Z,9.68
2022-10-13T21:38:34.735Z,9.66
2022-10-13T21:41:04.425Z,9.54
2022-10-13T21:43:31.241Z,9.57
2022-10-13T21:45:58.071Z,9.62
2022-10-13T21:48:24.869Z,9.45
2022-10-13T21:50:51.752Z,9.35
2022-10-13T21:53:18.494Z,9.50
2022-10-13T21:55:45.303Z,9.24
2022-10-13T21:58:12.132Z,9.38
2022-10-13T22:00:39.134Z,9.36
2022-10-13T22:03:06.040Z,9.28
2022-10-13T22:05:34.998Z,9.27
2022-10-13T22:08:01.829Z,9.15
2022-10-13T22:10:28.680Z,9.09
2022-10-13T22:12:57.983Z,9.16
2022-10-13T22:15:24.824Z,9.13
2022-10-13T22:17:51.732Z,9.10
2022-10-13T22:20:18.558Z,9.10
2022-10-13T22:22:45.313Z,9.14
2022-10-13T22:25:12.070Z,9.11
2022-10-13T22:27:38.839Z,9.02
2022-10-13T22:30:06.348Z,8.88
2022-10-13T22:32:33.247Z,9.02
2022-10-13T22:35:00.106Z,8.91
2022-10-13T22:37:27.096Z,8.81
2022-10-13T22:39:54.000Z,8.71
2022-10-13T22:42:21.420Z,8.75
2022-10-13T22:44:48.360Z,8.84
2022-10-13T22:47:15.322Z,8.73
2022-10-13T22:49:42.432Z,8.81
2022-10-13T22:52:09.212Z,8.83
2022-10-13T22:54:36.196Z,8.60
2022-10-13T22:57:03.104Z,8.48
2022-10-13T22:59:29.882Z,8.60
2022-10-13T23:01:56.678Z,8.61
2022-10-13T23:04:23.477Z,8.56
2022-10-13T23:06:50.321Z,8.44
2022-10-13T23:09:17.180Z,8.50
2022-10-13T23:11:44.038Z,8.42
2022-10-13T23:14:10.955Z,8.34
2022-10-13T23:16:37.769Z,8.31
2022-10-13T23:19:04.775Z,8.30
2022-10-13T23:21:31.681Z,8.15
2022-10-13T23:24:01.209Z,8.19
2022-10-13T23:26:28.674Z,8.21
2022-10-13T23:28:57.561Z,8.24
2022-10-13T23:31:25.744Z,8.23
2022-10-13T23:33:52.663Z,8.33
2022-10-13T23:36:22.685Z,8.12
2022-10-13T23:38:54.851Z,8.28
2022-10-13T23:41:21.647Z,8.19
2022-10-13T23:43:48.497Z,8.11
2022-10-13T23:46:15.331Z,8.19
2022-10-13T23:48:42.337Z,7.95
2022-10-13T23:51:15.062Z,7.90
2022-10-13T23:53:42.817Z,8.13
2022-10-13T23:56:11.074Z,8.04
2022-10-13T23:58:39.959Z,7.96
